createdAt,value
2023-03-06T00:03:18.212Z,-1.90
2023-03-06T00:08:21.903Z,-1.98
2023-03-06T00:13:26.860Z,-1.98
2023-03-06T00:18:30.107Z,-1.93
2023-03-06T00:23:33.165Z,-1.85
2023-03-06T00:28:36.712Z,-1.84
2023-03-06T00:33:39.786Z,-1.84
2023-03-06T00:38:42.906Z,-1.89
2023-03-06T00:43:46.022Z,-1.90
2023-03-06T00:48:48.997Z,-1.84
2023-03-06T00:53:52.105Z,-1.73
2023-03-06T00:58:55.153Z,-1.62
2023-03-06T01:03:58.312Z,-1.57
2023-03-06T01:09:01.639Z,-1.62
2023-03-06T01:14:05.225Z,-1.62
2023-03-06T01:19:08.558Z,-1.57
2023-03-06T01:24:11.653Z,-1.51
2023-03-06T01:29:14.765Z,-1.50
2023-03-06T01:34:18.646Z,-1.53
2023-03-06T01:39:21.690Z,-1.59
2023-03-06T01:44:24.694Z,-1.62
2023-03-06T01:49:37.027Z,-1.60
2023-03-06T01:54:52.513Z,-1.63
2023-03-06T02:00:18.923Z,-1.66
2023-03-06T02:05:22.488Z,-1.65
2023-03-06T02:10:25.583Z,-1.59
2023-03-06T02:15:30.314Z,-1.49
2023-03-06T02:20:57.699Z,-1.35
2023-03-06T02:26:02.472Z,-1.18
2023-03-06T02:31:06.618Z,-1.09
2023-03-06T02:36:15.736Z,-1.08
2023-03-06T02:41:18.898Z,-1.11
2023-03-06T02:46:21.870Z,-1.12
2023-03-06T02:51:25.206Z,-1.14
2023-03-06T02:56:28.270Z,-1.21
2023-03-06T03:01:31.623Z,-1.31
2023-03-06T03:06:34.627Z,-1.41
2023-03-06T03:11:37.855Z,-1.50
2023-03-06T03:16:40.803Z,-1.59
2023-03-06T03:21:43.790Z,-1.72
2023-03-06T03:26:46.734Z,-1.80
2023-03-06T03:31:49.702Z,-1.85
2023-03-06T03:36:52.693Z,-1.89
2023-03-06T03:41:55.760Z,-1.96
2023-03-06T03:46:58.904Z,-1.98
2023-03-06T03:52:01.865Z,-1.89
2023-03-06T03:57:05.076Z,-1.69
2023-03-06T04:02:08.085Z,-1.48
2023-03-06T04:07:11.088Z,-1.38
2023-03-06T04:12:14.085Z,-1.33
2023-03-06T04:17:17.011Z,-1.31
2023-03-06T04:22:20.091Z,-1.27
2023-03-06T04:27:23.072Z,-1.27
2023-03-06T04:32:26.154Z,-1.31
2023-03-06T04:37:29.314Z,-1.34
2023-03-06T04:42:32.250Z,-1.46
2023-03-06T04:47:35.210Z,-1.60
2023-03-06T04:52:38.344Z,-1.76
2023-03-06T04:57:44.225Z,-1.80
2023-03-06T05:02:47.592Z,-1.79
2023-03-06T05:07:50.763Z,-1.77
2023-03-06T05:12:53.742Z,-1.73
2023-03-06T05:17:56.697Z,-1.58
2023-03-06T05:22:59.671Z,-1.39
2023-03-06T05:28:02.626Z,-1.28
2023-03-06T05:33:05.546Z,-1.23
2023-03-06T05:38:09.519Z,-1.23
2023-03-06T05:43:13.012Z,-1.19
2023-03-06T05:48:16.298Z,-1.15
2023-03-06T05:53:19.270Z,-1.16
2023-03-06T05:58:22.208Z,-1.20
2023-03-06T06:03:26.584Z,-1.28
2023-03-06T06:08:29.544Z,-1.31
2023-03-06T06:13:32.923Z,-1.28
2023-03-06T06:18:35.797Z,-1.17
2023-03-06T06:23:38.858Z,-0.93
2023-03-06T06:28:41.805Z,-0.61
2023-03-06T06:33:45.557Z,-0.23
2023-03-06T06:38:49.836Z,0.05
2023-03-06T06:43:53.397Z,0.28
2023-03-06T06:48:56.344Z,0.50
2023-03-06T06:54:00.778Z,0.63
2023-03-06T06:59:16.003Z,0.87
2023-03-06T07:04:20.294Z,1.08
2023-03-06T07:09:23.385Z,1.27
2023-03-06T07:14:26.411Z,1.34
2023-03-06T07:19:29.407Z,1.37
2023-03-06T07:24:32.447Z,1.56
2023-03-06T07:29:36.014Z,1.75
2023-03-06T07:34:39.004Z,1.91
2023-03-06T07:39:42.069Z,1.96
2023-03-06T07:44:44.998Z,2.03
2023-03-06T07:49:47.998Z,2.04
2023-03-06T07:54:50.955Z,2.02
2023-03-06T07:59:54.022Z,1.99
2023-03-06T08:04:57.376Z,1.87
2023-03-06T08:10:00.322Z,1.81
2023-03-06T08:15:03.601Z,1.86
2023-03-06T08:20:10.457Z,1.92
2023-03-06T08:25:13.584Z,1.99
2023-03-06T08:30:17.075Z,2.06
2023-03-06T08:35:20.173Z,2.16
2023-03-06T08:40:23.456Z,2.24
2023-03-06T08:45:26.446Z,2.21
2023-03-06T08:50:29.462Z,2.27
2023-03-06T08:55:37.200Z,2.20
2023-03-06T09:00:40.419Z,2.29
2023-03-06T09:05:43.618Z,2.33
2023-03-06T09:10:48.805Z,2.18
2023-03-06T09:15:51.775Z,2.20
2023-03-06T09:20:54.872Z,2.16
2023-03-06T09:26:01.729Z,2.09
2023-03-06T09:31:13.976Z,2.05
2023-03-06T09:36:21.682Z,2.10
2023-03-06T09:41:38.452Z,1.95
2023-03-06T09:47:07.124Z,1.91
2023-03-06T09:52:52.018Z,1.90
2023-03-06T09:58:17.943Z,1.86
2023-03-06T10:03:42.061Z,1.79
2023-03-06T10:09:12.104Z,1.88
2023-03-06T10:20:28.344Z,2.12
2023-03-06T10:25:54.312Z,2.02
2023-03-06T10:31:10.491Z,1.99
2023-03-06T10:36:19.681Z,2.08
2023-03-06T10:41:32.104Z,2.29
2023-03-06T10:46:39.322Z,2.40
2023-03-06T10:51:55.961Z,2.52
2023-03-06T10:57:17.224Z,2.44
2023-03-06T11:02:38.636Z,2.42
2023-03-06T11:07:59.380Z,2.44
2023-03-06T11:13:22.107Z,2.56
2023-03-06T11:19:01.389Z,2.52
2023-03-06T11:24:15.828Z,2.44
2023-03-06T11:29:38.470Z,2.26
2023-03-06T11:34:54.760Z,2.14
2023-03-06T11:40:39.055Z,2.09
2023-03-06T11:46:02.647Z,2.07
2023-03-06T11:51:21.467Z,2.14
2023-03-06T11:56:44.565Z,2.29
2023-03-06T12:02:21.728Z,2.57
2023-03-06T12:08:19.632Z,2.83
2023-03-06T12:13:46.640Z,3.05
2023-03-06T12:18:54.460Z,3.27
2023-03-06T12:24:11.727Z,3.39
2023-03-06T12:29:23.544Z,3.53
2023-03-06T12:35:03.564Z,3.70
2023-03-06T12:40:29.766Z,3.96
2023-03-06T12:45:39.201Z,4.22
2023-03-06T12:50:45.278Z,4.41
2023-03-06T12:55:49.783Z,4.51
2023-03-06T13:01:07.829Z,4.53
2023-03-06T13:06:30.900Z,4.51
2023-03-06T13:11:51.034Z,4.60
2023-03-06T13:16:54.353Z,4.66
2023-03-06T13:21:57.423Z,4.65
2023-03-06T13:27:06.349Z,4.67
2023-03-06T13:32:15.364Z,4.65
2023-03-06T13:37:23.128Z,4.66
2023-03-06T13:42:33.166Z,4.66
2023-03-06T13:48:03.167Z,4.72
2023-03-06T13:53:24.313Z,4.72
2023-03-06T13:58:57.663Z,4.65
2023-03-06T14:04:16.353Z,4.51
2023-03-06T14:09:28.237Z,4.39
2023-03-06T14:14:40.096Z,4.30
2023-03-06T14:19:42.983Z,4.25
2023-03-06T14:24:54.181Z,4.23
2023-03-06T14:30:13.061Z,4.25
2023-03-06T14:35:27.863Z,4.24
2023-03-06T14:40:43.387Z,4.18
2023-03-06T14:46:09.100Z,4.09
2023-03-06T14:51:23.291Z,4.00
2023-03-06T14:56:26.863Z,3.90
2023-03-06T15:01:36.420Z,3.81
2023-03-06T15:06:42.488Z,3.75
2023-03-06T15:11:51.281Z,3.70
2023-03-06T15:16:54.459Z,3.65
2023-03-06T15:21:57.273Z,3.64
2023-03-06T15:27:03.276Z,3.71
2023-03-06T15:32:33.130Z,3.76
2023-03-06T15:37:35.947Z,3.77
2023-03-06T15:42:38.970Z,3.74
2023-03-06T15:47:42.996Z,3.71
2023-03-06T15:52:47.119Z,3.66
2023-03-06T15:57:56.838Z,3.60
2023-03-06T16:03:00.547Z,3.51
2023-03-06T16:08:04.780Z,3.44
2023-03-06T16:13:15.932Z,3.36
2023-03-06T16:18:19.158Z,3.28
2023-03-06T16:23:21.964Z,3.20
2023-03-06T16:28:26.623Z,3.11
2023-03-06T16:33:29.441Z,3.03
2023-03-06T16:38:32.232Z,2.96
2023-03-06T16:43:35.092Z,2.92
2023-03-06T16:48:37.838Z,2.94
2023-03-06T16:53:42.263Z,3.01
2023-03-06T16:58:45.418Z,3.06
2023-03-06T17:03:48.309Z,3.04
2023-03-06T17:08:51.529Z,3.00
2023-03-06T17:13:55.476Z,2.96
2023-03-06T17:19:00.093Z,2.91
2023-03-06T17:24:03.924Z,2.85
2023-03-06T17:29:07.188Z,2.78
2023-03-06T17:34:10.115Z,2.73
2023-03-06T17:39:13.075Z,2.76
2023-03-06T17:44:16.719Z,2.86
2023-03-06T17:49:22.399Z,2.98
2023-03-06T17:54:30.093Z,3.04
2023-03-06T17:59:36.467Z,3.02
2023-03-06T18:04:39.371Z,2.95
2023-03-06T18:09:43.185Z,2.88
2023-03-06T18:14:46.720Z,2.88
2023-03-06T18:19:49.629Z,2.93
2023-03-06T18:24:52.511Z,2.90
2023-03-06T18:29:55.820Z,2.84
2023-03-06T18:34:58.653Z,2.74
2023-03-06T18:40:01.544Z,2.68
2023-03-06T18:45:04.667Z,2.65
2023-03-06T18:50:07.954Z,2.70
2023-03-06T18:55:10.941Z,2.78
2023-03-06T19:00:14.127Z,2.84
2023-03-06T19:05:17.487Z,2.83
2023-03-06T19:10:20.551Z,2.78
2023-03-06T19:15:23.396Z,2.69
2023-03-06T19:20:26.770Z,2.66
2023-03-06T19:25:29.570Z,2.66
2023-03-06T19:30:32.447Z,2.66
2023-03-06T19:35:35.505Z,2.63
2023-03-06T19:40:38.381Z,2.58
2023-03-06T19:45:44.701Z,2.54
2023-03-06T19:50:47.579Z,2.57
2023-03-06T19:55:50.491Z,2.60
2023-03-06T20:00:53.295Z,2.61
2023-03-06T20:05:56.130Z,2.60
2023-03-06T20:10:58.908Z,2.56
2023-03-06T20:16:04.840Z,2.50
2023-03-06T20:21:07.977Z,2.51
2023-03-06T20:26:13.061Z,2.52
2023-03-06T20:31:17.997Z,2.50
2023-03-06T20:36:23.518Z,2.45
2023-03-06T20:41:28.075Z,2.41
2023-03-06T20:46:31.377Z,2.45
2023-03-06T20:51:39.203Z,2.50
2023-03-06T20:56:43.283Z,2.49
2023-03-06T21:01:48.071Z,2.47
2023-03-06T21:06:53.321Z,2.42
2023-03-06T21:11:56.098Z,2.44
2023-03-06T21:16:59.410Z,2.47
2023-03-06T21:22:02.219Z,2.48
2023-03-06T21:27:05.047Z,2.43
2023-03-06T21:32:07.937Z,2.36
2023-03-06T21:37:10.803Z,2.29
2023-03-06T21:42:13.702Z,2.30
2023-03-06T21:47:16.534Z,2.36
2023-03-06T21:52:19.310Z,2.40
2023-03-06T21:57:22.121Z,2.39
2023-03-06T22:02:25.029Z,2.35
2023-03-06T22:07:29.050Z,2.28
2023-03-06T22:12:34.696Z,2.25
2023-03-06T22:17:37.551Z,2.29
2023-03-06T22:22:40.331Z,2.33
2023-03-06T22:27:43.138Z,2.33
2023-03-06T22:32:45.958Z,2.29
2023-03-06T22:37:48.819Z,2.26
2023-03-06T22:42:51.730Z,2.30
2023-03-06T22:48:02.317Z,2.36
2023-03-06T22:53:12.112Z,2.40
2023-03-06T22:58:15.280Z,2.40
2023-03-06T23:03:18.078Z,2.38
2023-03-06T23:08:20.886Z,2.32
2023-03-06T23:13:23.742Z,2.27
2023-03-06T23:18:28.623Z,2.27
2023-03-06T23:23:31.430Z,2.35
2023-03-06T23:28:35.154Z,2.42
2023-03-06T23:33:41.995Z,2.47
2023-03-06T23:38:45.517Z,2.45
2023-03-06T23:43:48.828Z,2.39
2023-03-06T23:48:52.217Z,2.31
2023-03-06T23:53:58.337Z,2.24
2023-03-06T23:59:01.317Z,2.20
